sensor_id;sensor_type;location;lat;lon;timestamp;P1;durP1;ratioP1;P2;durP2;ratioP2
74912;SDS011;63474;55.624;37.304;2022-09-20T00:01:09;0.52;;;0.40;;
74912;SDS011;63474;55.624;37.304;2022-09-20T00:03:42;0.30;;;0.30;;
74912;SDS011;63474;55.624;37.304;2022-09-20T00:06:13;0.52;;;0.38;;
74912;SDS011;63474;55.624;37.304;2022-09-20T00:08:42;0.35;;;0.30;;
74912;SDS011;63474;55.624;37.304;2022-09-20T00:11:13;0.40;;;0.40;;
74912;SDS011;63474;55.624;37.304;2022-09-20T00:13:47;0.63;;;0.45;;
74912;SDS011;63474;55.624;37.304;2022-09-20T00:16:16;0.40;;;0.30;;
74912;SDS011;63474;55.624;37.304;2022-09-20T00:21:21;0.35;;;0.20;;
74912;SDS011;63474;55.624;37.304;2022-09-20T00:23:50;0.30;;;0.30;;
74912;SDS011;63474;55.624;37.304;2022-09-20T00:26:17;1.40;;;0.40;;
74912;SDS011;63474;55.624;37.304;2022-09-20T00:28:46;0.20;;;0.20;;
74912;SDS011;63474;55.624;37.304;2022-09-20T00:31:13;1.13;;;0.40;;
74912;SDS011;63474;55.624;37.304;2022-09-20T00:33:41;1.45;;;0.55;;
74912;SDS011;63474;55.624;37.304;2022-09-20T00:36:07;1.20;;;0.40;;
74912;SDS011;63474;55.624;37.304;2022-09-20T00:38:32;0.98;;;0.50;;
74912;SDS011;63474;55.624;37.304;2022-09-20T00:43:36;1.38;;;0.43;;
74912;SDS011;63474;55.624;37.304;2022-09-20T00:46:49;0.60;;;0.50;;
74912;SDS011;63474;55.624;37.304;2022-09-20T00:49:25;0.57;;;0.40;;
74912;SDS011;63474;55.624;37.304;2022-09-20T00:51:53;0.30;;;0.30;;
74912;SDS011;63474;55.624;37.304;2022-09-20T00:54:24;0.60;;;0.40;;
74912;SDS011;63474;55.624;37.304;2022-09-20T00:56:51;0.95;;;0.40;;
74912;SDS011;63474;55.624;37.304;2022-09-20T01:01:55;0.60;;;0.43;;
74912;SDS011;63474;55.624;37.304;2022-09-20T01:04:36;0.38;;;0.30;;
74912;SDS011;63474;55.624;37.304;2022-09-20T01:07:12;0.43;;;0.40;;
74912;SDS011;63474;55.624;37.304;2022-09-20T01:09:40;0.60;;;0.45;;
74912;SDS011;63474;55.624;37.304;2022-09-20T01:12:10;0.85;;;0.50;;
74912;SDS011;63474;55.624;37.304;2022-09-20T01:14:38;0.57;;;0.40;;
74912;SDS011;63474;55.624;37.304;2022-09-20T01:17:07;0.60;;;0.40;;
74912;SDS011;63474;55.624;37.304;2022-09-20T01:22:51;0.50;;;0.35;;
74912;SDS011;63474;55.624;37.304;2022-09-20T01:30:23;0.30;;;0.30;;
74912;SDS011;63474;55.624;37.304;2022-09-20T01:36:30;0.20;;;0.20;;
74912;SDS011;63474;55.624;37.304;2022-09-20T01:41:52;0.50;;;0.30;;
74912;SDS011;63474;55.624;37.304;2022-09-20T01:47:14;0.63;;;0.50;;
74912;SDS011;63474;55.624;37.304;2022-09-20T02:15:07;1.15;;;0.50;;
74912;SDS011;63474;55.624;37.304;2022-09-20T02:34:19;0.35;;;0.30;;
74912;SDS011;63474;55.624;37.304;2022-09-20T02:39:22;0.73;;;0.45;;
74912;SDS011;63474;55.624;37.304;2022-09-20T02:47:34;0.40;;;0.40;;
74912;SDS011;63474;55.624;37.304;2022-09-20T02:58:15;0.40;;;0.38;;
74912;SDS011;63474;55.624;37.304;2022-09-20T03:03:27;0.90;;;0.38;;
74912;SDS011;63474;55.624;37.304;2022-09-20T03:08:38;0.43;;;0.40;;
74912;SDS011;63474;55.624;37.304;2022-09-20T03:11:28;0.40;;;0.35;;
74912;SDS011;63474;55.624;37.304;2022-09-20T03:16:50;0.52;;;0.50;;
74912;SDS011;63474;55.624;37.304;2022-09-20T03:27:43;0.30;;;0.30;;
74912;SDS011;63474;55.624;37.304;2022-09-20T03:33:45;0.65;;;0.40;;
74912;SDS011;63474;55.624;37.304;2022-09-20T03:42:31;1.13;;;0.50;;
74912;SDS011;63474;55.624;37.304;2022-09-20T03:45:05;0.40;;;0.40;;
74912;SDS011;63474;55.624;37.304;2022-09-20T03:50:44;1.20;;;0.35;;
74912;SDS011;63474;55.624;37.304;2022-09-20T03:56:14;0.85;;;0.40;;
74912;SDS011;63474;55.624;37.304;2022-09-20T04:02:06;0.50;;;0.45;;
74912;SDS011;63474;55.624;37.304;2022-09-20T04:15:56;0.95;;;0.40;;
74912;SDS011;63474;55.624;37.304;2022-09-20T04:18:35;1.45;;;0.50;;
74912;SDS011;63474;55.624;37.304;2022-09-20T04:21:18;0.45;;;0.40;;
74912;SDS011;63474;55.624;37.304;2022-09-20T04:26:27;1.30;;;0.50;;
74912;SDS011;63474;55.624;37.304;2022-09-20T04:31:38;1.35;;;0.55;;
74912;SDS011;63474;55.624;37.304;2022-09-20T04:34:20;0.85;;;0.50;;
74912;SDS011;63474;55.624;37.304;2022-09-20T04:36:57;0.70;;;0.43;;
74912;SDS011;63474;55.624;37.304;2022-09-20T04:58:35;0.40;;;0.40;;
74912;SDS011;63474;55.624;37.304;2022-09-20T05:06:43;0.60;;;0.38;;
74912;SDS011;63474;55.624;37.304;2022-09-20T05:12:28;0.43;;;0.38;;
74912;SDS011;63474;55.624;37.304;2022-09-20T05:15:22;0.80;;;0.52;;
74912;SDS011;63474;55.624;37.304;2022-09-20T05:18:15;1.10;;;0.60;;
74912;SDS011;63474;55.624;37.304;2022-09-20T05:24:19;0.75;;;0.60;;
74912;SDS011;63474;55.624;37.304;2022-09-20T05:29:32;0.63;;;0.40;;
74912;SDS011;63474;55.624;37.304;2022-09-20T05:34:41;0.60;;;0.50;;
74912;SDS011;63474;55.624;37.304;2022-09-20T05:42:24;1.25;;;0.70;;
74912;SDS011;63474;55.624;37.304;2022-09-20T05:56:29;1.38;;;0.55;;
74912;SDS011;63474;55.624;37.304;2022-09-20T06:02:40;1.65;;;0.63;;
74912;SDS011;63474;55.624;37.304;2022-09-20T06:05:10;1.35;;;0.68;;
74912;SDS011;63474;55.624;37.304;2022-09-20T06:16:05;1.48;;;0.57;;
74912;SDS011;63474;55.624;37.304;2022-09-20T06:18:40;1.02;;;0.50;;
74912;SDS011;63474;55.624;37.304;2022-09-20T06:24:41;2.25;;;0.80;;
74912;SDS011;63474;55.624;37.304;2022-09-20T06:27:15;1.35;;;0.50;;
74912;SDS011;63474;55.624;37.304;2022-09-20T06:29:47;0.82;;;0.45;;
74912;SDS011;63474;55.624;37.304;2022-09-20T06:32:21;2.22;;;0.50;;
74912;SDS011;63474;55.624;37.304;2022-09-20T06:34:46;0.73;;;0.50;;
74912;SDS011;63474;55.624;37.304;2022-09-20T06:37:38;1.00;;;0.55;;
74912;SDS011;63474;55.624;37.304;2022-09-20T06:40:48;1.30;;;0.60;;
74912;SDS011;63474;55.624;37.304;2022-09-20T06:43:01;4.82;;;0.95;;
74912;SDS011;63474;55.624;37.304;2022-09-20T06:45:28;3.60;;;1.05;;
74912;SDS011;63474;55.624;37.304;2022-09-20T06:50:19;1.65;;;0.80;;
74912;SDS011;63474;55.624;37.304;2022-09-20T06:52:46;4.63;;;1.13;;
74912;SDS011;63474;55.624;37.304;2022-09-20T06:55:21;1.70;;;0.73;;
74912;SDS011;63474;55.624;37.304;2022-09-20T06:57:54;2.90;;;0.80;;
74912;SDS011;63474;55.624;37.304;2022-09-20T07:00:21;3.55;;;0.70;;
74912;SDS011;63474;55.624;37.304;2022-09-20T07:02:48;1.42;;;0.65;;
74912;SDS011;63474;55.624;37.304;2022-09-20T07:05:15;1.40;;;0.90;;
74912;SDS011;63474;55.624;37.304;2022-09-20T07:07:42;2.10;;;1.10;;
74912;SDS011;63474;55.624;37.304;2022-09-20T07:10:08;3.65;;;1.02;;
74912;SDS011;63474;55.624;37.304;2022-09-20T07:12:35;3.05;;;1.20;;
74912;SDS011;63474;55.624;37.304;2022-09-20T07:17:25;5.47;;;1.02;;
74912;SDS011;63474;55.624;37.304;2022-09-20T07:19:51;5.15;;;0.90;;
74912;SDS011;63474;55.624;37.304;2022-09-20T07:22:17;3.20;;;1.33;;
74912;SDS011;63474;55.624;37.304;2022-09-20T07:24:42;4.15;;;3.47;;
74912;SDS011;63474;55.624;37.304;2022-09-20T07:27:08;5.60;;;3.08;;
74912;SDS011;63474;55.624;37.304;2022-09-20T07:29:34;5.68;;;1.80;;
74912;SDS011;63474;55.624;37.304;2022-09-20T07:32:01;3.40;;;1.60;;
74912;SDS011;63474;55.624;37.304;2022-09-20T07:34:27;5.07;;;1.77;;
74912;SDS011;63474;55.624;37.304;2022-09-20T07:36:52;3.70;;;1.10;;
74912;SDS011;63474;55.624;37.304;2022-09-20T07:39:24;2.05;;;1.25;;
74912;SDS011;63474;55.624;37.304;2022-09-20T07:41:49;6.18;;;1.80;;
74912;SDS011;63474;55.624;37.304;2022-09-20T07:44:17;5.00;;;1.63;;
74912;SDS011;63474;55.624;37.304;2022-09-20T07:46:46;4.40;;;1.33;;
74912;SDS011;63474;55.624;37.304;2022-09-20T07:49:16;2.15;;;1.27;;
74912;SDS011;63474;55.624;37.304;2022-09-20T07:51:43;3.35;;;1.10;;
74912;SDS011;63474;55.624;37.304;2022-09-20T07:54:09;1.67;;;0.95;;
74912;SDS011;63474;55.624;37.304;2022-09-20T07:56:34;2.05;;;1.23;;
74912;SDS011;63474;55.624;37.304;2022-09-20T07:59:01;1.27;;;0.90;;
74912;SDS011;63474;55.624;37.304;2022-09-20T08:01:26;3.60;;;1.30;;
74912;SDS011;63474;55.624;37.304;2022-09-20T08:03:52;3.97;;;1.00;;
74912;SDS011;63474;55.624;37.304;2022-09-20T08:06:19;4.35;;;1.10;;
74912;SDS011;63474;55.624;37.304;2022-09-20T08:08:44;3.53;;;0.90;;
74912;SDS011;63474;55.624;37.304;2022-09-20T08:11:11;3.55;;;1.05;;
74912;SDS011;63474;55.624;37.304;2022-09-20T08:13:40;1.95;;;1.20;;
74912;SDS011;63474;55.624;37.304;2022-09-20T08:16:10;3.60;;;0.85;;
74912;SDS011;63474;55.624;37.304;2022-09-20T08:18:37;1.48;;;0.90;;
74912;SDS011;63474;55.624;37.304;2022-09-20T08:21:03;2.90;;;1.08;;
74912;SDS011;63474;55.624;37.304;2022-09-20T08:23:29;1.85;;;0.93;;
74912;SDS011;63474;55.624;37.304;2022-09-20T08:25:59;1.52;;;0.82;;
74912;SDS011;63474;55.624;37.304;2022-09-20T08:28:25;2.65;;;1.10;;
74912;SDS011;63474;55.624;37.304;2022-09-20T08:30:50;1.75;;;1.00;;
74912;SDS011;63474;55.624;37.304;2022-09-20T08:33:16;4.28;;;1.13;;
74912;SDS011;63474;55.624;37.304;2022-09-20T08:35:43;2.70;;;0.98;;
74912;SDS011;63474;55.624;37.304;2022-09-20T08:38:12;2.13;;;0.98;;
74912;SDS011;63474;55.624;37.304;2022-09-20T08:40:39;3.47;;;1.17;;
74912;SDS011;63474;55.624;37.304;2022-09-20T08:43:05;2.97;;;1.15;;
74912;SDS011;63474;55.624;37.304;2022-09-20T08:45:34;2.97;;;1.00;;
74912;SDS011;63474;55.624;37.304;2022-09-20T08:50:26;7.50;;;1.27;;
74912;SDS011;63474;55.624;37.304;2022-09-20T08:52:53;1.48;;;0.90;;
74912;SDS011;63474;55.624;37.304;2022-09-20T08:55:26;1.63;;;0.90;;
74912;SDS011;63474;55.624;37.304;2022-09-20T08:57:55;3.90;;;1.20;;
74912;SDS011;63474;55.624;37.304;2022-09-20T09:00:23;3.40;;;1.10;;
74912;SDS011;63474;55.624;37.304;2022-09-20T09:02:53;2.78;;;0.98;;
74912;SDS011;63474;55.624;37.304;2022-09-20T09:10:20;1.45;;;0.93;;
74912;SDS011;63474;55.624;37.304;2022-09-20T09:12:47;2.58;;;0.75;;
74912;SDS011;63474;55.624;37.304;2022-09-20T09:17:52;3.08;;;1.20;;
74912;SDS011;63474;55.624;37.304;2022-09-20T09:20:19;5.88;;;1.35;;
74912;SDS011;63474;55.624;37.304;2022-09-20T09:22:58;2.90;;;1.35;;
74912;SDS011;63474;55.624;37.304;2022-09-20T09:25:48;4.13;;;1.13;;
74912;SDS011;63474;55.624;37.304;2022-09-20T09:28:14;2.67;;;1.13;;
74912;SDS011;63474;55.624;37.304;2022-09-20T09:33:22;2.75;;;0.95;;
74912;SDS011;63474;55.624;37.304;2022-09-20T09:38:30;5.38;;;1.00;;
74912;SDS011;63474;55.624;37.304;2022-09-20T09:41:43;1.30;;;0.80;;
74912;SDS011;63474;55.624;37.304;2022-09-20T09:44:00;2.15;;;0.90;;
74912;SDS011;63474;55.624;37.304;2022-09-20T09:46:32;1.10;;;0.70;;
74912;SDS011;63474;55.624;37.304;2022-09-20T09:49:14;1.42;;;0.80;;
74912;SDS011;63474;55.624;37.304;2022-09-20T09:51:59;2.75;;;0.98;;
74912;SDS011;63474;55.624;37.304;2022-09-20T10:00:15;5.15;;;3.10;;
74912;SDS011;63474;55.624;37.304;2022-09-20T10:08:28;6.03;;;3.85;;
74912;SDS011;63474;55.624;37.304;2022-09-20T10:11:16;6.28;;;2.85;;
74912;SDS011;63474;55.624;37.304;2022-09-20T10:14:14;3.53;;;2.03;;
74912;SDS011;63474;55.624;37.304;2022-09-20T10:20:06;4.13;;;2.47;;
74912;SDS011;63474;55.624;37.304;2022-09-20T10:31:41;1.63;;;1.45;;
74912;SDS011;63474;55.624;37.304;2022-09-20T10:37:18;1.77;;;1.38;;
74912;SDS011;63474;55.624;37.304;2022-09-20T10:42:46;2.25;;;1.00;;
74912;SDS011;63474;55.624;37.304;2022-09-20T10:48:04;4.28;;;1.58;;
74912;SDS011;63474;55.624;37.304;2022-09-20T10:56:27;2.75;;;1.48;;
74912;SDS011;63474;55.624;37.304;2022-09-20T11:01:33;2.97;;;1.27;;
74912;SDS011;63474;55.624;37.304;2022-09-20T11:09:21;1.85;;;1.10;;
74912;SDS011;63474;55.624;37.304;2022-09-20T11:12:00;2.10;;;1.40;;
74912;SDS011;63474;55.624;37.304;2022-09-20T11:14:34;2.55;;;1.10;;
74912;SDS011;63474;55.624;37.304;2022-09-20T11:17:25;2.15;;;1.30;;
74912;SDS011;63474;55.624;37.304;2022-09-20T11:22:27;2.33;;;1.25;;
74912;SDS011;63474;55.624;37.304;2022-09-20T11:27:25;2.78;;;1.33;;
74912;SDS011;63474;55.624;37.304;2022-09-20T11:30:19;3.05;;;1.10;;
74912;SDS011;63474;55.624;37.304;2022-09-20T11:35:52;3.00;;;1.10;;
74912;SDS011;63474;55.624;37.304;2022-09-20T11:38:34;1.45;;;1.00;;
74912;SDS011;63474;55.624;37.304;2022-09-20T11:41:11;4.38;;;1.52;;
74912;SDS011;63474;55.624;37.304;2022-09-20T11:43:43;16.40;;;15.13;;
74912;SDS011;63474;55.624;37.304;2022-09-20T11:46:17;3.85;;;1.35;;
74912;SDS011;63474;55.624;37.304;2022-09-20T11:54:58;4.28;;;1.98;;
74912;SDS011;63474;55.624;37.304;2022-09-20T11:57:20;3.63;;;2.33;;
74912;SDS011;63474;55.624;37.304;2022-09-20T11:59:53;8.68;;;6.15;;
74912;SDS011;63474;55.624;37.304;2022-09-20T12:02:31;65.55;;;58.40;;
74912;SDS011;63474;55.624;37.304;2022-09-20T12:07:29;110.75;;;94.88;;
74912;SDS011;63474;55.624;37.304;2022-09-20T12:10:06;103.70;;;92.20;;
74912;SDS011;63474;55.624;37.304;2022-09-20T12:12:54;106.90;;;91.95;;
74912;SDS011;63474;55.624;37.304;2022-09-20T12:15:26;110.28;;;98.60;;
74912;SDS011;63474;55.624;37.304;2022-09-20T12:26:05;104.63;;;92.50;;
74912;SDS011;63474;55.624;37.304;2022-09-20T12:28:40;91.82;;;80.65;;
74912;SDS011;63474;55.624;37.304;2022-09-20T12:34:02;53.60;;;43.38;;
74912;SDS011;63474;55.624;37.304;2022-09-20T12:39:22;25.98;;;21.70;;
74912;SDS011;63474;55.624;37.304;2022-09-20T12:42:02;22.10;;;18.27;;
74912;SDS011;63474;55.624;37.304;2022-09-20T12:49:48;9.25;;;7.55;;
74912;SDS011;63474;55.624;37.304;2022-09-20T12:55:05;7.63;;;4.82;;
74912;SDS011;63474;55.624;37.304;2022-09-20T12:57:33;5.53;;;3.50;;
74912;SDS011;63474;55.624;37.304;2022-09-20T13:02:55;4.40;;;3.05;;
74912;SDS011;63474;55.624;37.304;2022-09-20T13:05:29;4.07;;;3.13;;
74912;SDS011;63474;55.624;37.304;2022-09-20T13:08:04;7.22;;;4.88;;
74912;SDS011;63474;55.624;37.304;2022-09-20T13:10:41;6.75;;;4.32;;
74912;SDS011;63474;55.624;37.304;2022-09-20T13:13:21;5.65;;;3.50;;
74912;SDS011;63474;55.624;37.304;2022-09-20T13:15:51;4.75;;;3.20;;
74912;SDS011;63474;55.624;37.304;2022-09-20T13:18:22;3.30;;;2.83;;
74912;SDS011;63474;55.624;37.304;2022-09-20T13:20:51;4.43;;;2.63;;
74912;SDS011;63474;55.624;37.304;2022-09-20T13:23:25;3.47;;;2.45;;
74912;SDS011;63474;55.624;37.304;2022-09-20T13:25:56;4.10;;;1.90;;
74912;SDS011;63474;55.624;37.304;2022-09-20T13:28:27;2.97;;;1.90;;
74912;SDS011;63474;55.624;37.304;2022-09-20T13:31:14;2.67;;;1.63;;
74912;SDS011;63474;55.624;37.304;2022-09-20T13:33:51;5.32;;;2.67;;
74912;SDS011;63474;55.624;37.304;2022-09-20T13:36:24;4.20;;;3.05;;
74912;SDS011;63474;55.624;37.304;2022-09-20T13:39:01;6.68;;;3.70;;
74912;SDS011;63474;55.624;37.304;2022-09-20T13:41:27;6.22;;;4.03;;
74912;SDS011;63474;55.624;37.304;2022-09-20T13:43:55;5.93;;;4.20;;
74912;SDS011;63474;55.624;37.304;2022-09-20T13:46:23;5.88;;;3.65;;
74912;SDS011;63474;55.624;37.304;2022-09-20T13:49:13;6.18;;;4.00;;
74912;SDS011;63474;55.624;37.304;2022-09-20T13:51:43;5.45;;;3.65;;
74912;SDS011;63474;55.624;37.304;2022-09-20T13:54:43;4.90;;;3.47;;
74912;SDS011;63474;55.624;37.304;2022-09-20T13:57:02;5.70;;;3.80;;
74912;SDS011;63474;55.624;37.304;2022-09-20T13:59:43;5.55;;;3.83;;
74912;SDS011;63474;55.624;37.304;2022-09-20T14:02:23;5.05;;;3.47;;
74912;SDS011;63474;55.624;37.304;2022-09-20T14:07:25;5.47;;;3.78;;
74912;SDS011;63474;55.624;37.304;2022-09-20T14:09:52;5.10;;;3.10;;
74912;SDS011;63474;55.624;37.304;2022-09-20T14:12:20;5.40;;;3.25;;
74912;SDS011;63474;55.624;37.304;2022-09-20T14:14:49;4.47;;;3.40;;
74912;SDS011;63474;55.624;37.304;2022-09-20T14:17:16;7.60;;;3.22;;
74912;SDS011;63474;55.624;37.304;2022-09-20T14:19:46;5.35;;;3.03;;
74912;SDS011;63474;55.624;37.304;2022-09-20T14:22:21;5.35;;;2.90;;
74912;SDS011;63474;55.624;37.304;2022-09-20T14:27:24;5.20;;;3.05;;
74912;SDS011;63474;55.624;37.304;2022-09-20T14:29:52;6.45;;;3.00;;
74912;SDS011;63474;55.624;37.304;2022-09-20T14:34:45;5.35;;;2.50;;
74912;SDS011;63474;55.624;37.304;2022-09-20T14:37:33;4.47;;;2.60;;
74912;SDS011;63474;55.624;37.304;2022-09-20T14:40:13;6.00;;;2.90;;
74912;SDS011;63474;55.624;37.304;2022-09-20T14:45:22;5.97;;;2.40;;
74912;SDS011;63474;55.624;37.304;2022-09-20T14:48:34;8.15;;;3.88;;
74912;SDS011;63474;55.624;37.304;2022-09-20T14:50:43;7.72;;;3.92;;
74912;SDS011;63474;55.624;37.304;2022-09-20T14:55:36;11.45;;;4.65;;
74912;SDS011;63474;55.624;37.304;2022-09-20T14:58:24;5.88;;;3.50;;
74912;SDS011;63474;55.624;37.304;2022-09-20T15:01:04;5.45;;;3.00;;
74912;SDS011;63474;55.624;37.304;2022-09-20T15:03:47;3.35;;;2.40;;
74912;SDS011;63474;55.624;37.304;2022-09-20T15:06:12;4.68;;;2.72;;
74912;SDS011;63474;55.624;37.304;2022-09-20T15:08:39;4.40;;;2.67;;
74912;SDS011;63474;55.624;37.304;2022-09-20T15:11:10;4.13;;;2.33;;
74912;SDS011;63474;55.624;37.304;2022-09-20T15:13:39;4.68;;;2.67;;
74912;SDS011;63474;55.624;37.304;2022-09-20T15:16:05;3.33;;;2.40;;
74912;SDS011;63474;55.624;37.304;2022-09-20T15:18:38;3.50;;;2.38;;
74912;SDS011;63474;55.624;37.304;2022-09-20T15:21:05;4.30;;;2.50;;
74912;SDS011;63474;55.624;37.304;2022-09-20T15:23:31;5.10;;;2.20;;
74912;SDS011;63474;55.624;37.304;2022-09-20T15:28:23;4.65;;;2.50;;
74912;SDS011;63474;55.624;37.304;2022-09-20T15:30:53;4.05;;;2.30;;
74912;SDS011;63474;55.624;37.304;2022-09-20T15:33:20;4.20;;;2.40;;
74912;SDS011;63474;55.624;37.304;2022-09-20T15:35:46;3.70;;;2.47;;
74912;SDS011;63474;55.624;37.304;2022-09-20T15:38:15;6.00;;;2.10;;
74912;SDS011;63474;55.624;37.304;2022-09-20T15:40:46;4.35;;;2.92;;
74912;SDS011;63474;55.624;37.304;2022-09-20T15:43:17;5.43;;;2.72;;
74912;SDS011;63474;55.624;37.304;2022-09-20T15:48:17;2.83;;;1.75;;
74912;SDS011;63474;55.624;37.304;2022-09-20T15:51:06;3.13;;;1.77;;
74912;SDS011;63474;55.624;37.304;2022-09-20T15:53:35;5.43;;;2.88;;
74912;SDS011;63474;55.624;37.304;2022-09-20T15:56:04;44.10;;;39.85;;
74912;SDS011;63474;55.624;37.304;2022-09-20T15:58:43;8.27;;;4.05;;
74912;SDS011;63474;55.624;37.304;2022-09-20T16:01:09;5.55;;;3.03;;
74912;SDS011;63474;55.624;37.304;2022-09-20T16:03:35;6.50;;;3.00;;
74912;SDS011;63474;55.624;37.304;2022-09-20T16:06:02;5.18;;;3.17;;
74912;SDS011;63474;55.624;37.304;2022-09-20T16:08:30;3.78;;;2.60;;
74912;SDS011;63474;55.624;37.304;2022-09-20T16:13:26;6.00;;;2.72;;
74912;SDS011;63474;55.624;37.304;2022-09-20T16:15:55;5.82;;;2.75;;
74912;SDS011;63474;55.624;37.304;2022-09-20T16:18:26;4.47;;;2.45;;
74912;SDS011;63474;55.624;37.304;2022-09-20T16:20:52;5.78;;;2.42;;
74912;SDS011;63474;55.624;37.304;2022-09-20T16:23:17;4.53;;;2.33;;
74912;SDS011;63474;55.624;37.304;2022-09-20T16:25:43;4.00;;;2.50;;
74912;SDS011;63474;55.624;37.304;2022-09-20T16:28:08;7.03;;;2.50;;
74912;SDS011;63474;55.624;37.304;2022-09-20T16:30:35;3.95;;;2.10;;
74912;SDS011;63474;55.624;37.304;2022-09-20T16:35:34;4.18;;;2.13;;
74912;SDS011;63474;55.624;37.304;2022-09-20T16:38:00;3.45;;;2.58;;
74912;SDS011;63474;55.624;37.304;2022-09-20T16:40:27;4.57;;;2.35;;
74912;SDS011;63474;55.624;37.304;2022-09-20T16:42:53;6.57;;;2.50;;
74912;SDS011;63474;55.624;37.304;2022-09-20T16:45:21;5.68;;;2.20;;
74912;SDS011;63474;55.624;37.304;2022-09-20T16:47:47;3.47;;;2.60;;
74912;SDS011;63474;55.624;37.304;2022-09-20T16:50:14;3.20;;;1.90;;
74912;SDS011;63474;55.624;37.304;2022-09-20T16:52:47;4.25;;;2.08;;
74912;SDS011;63474;55.624;37.304;2022-09-20T16:55:14;3.50;;;2.03;;
74912;SDS011;63474;55.624;37.304;2022-09-20T16:57:40;3.67;;;2.10;;
74912;SDS011;63474;55.624;37.304;2022-09-20T17:00:06;2.35;;;1.95;;
74912;SDS011;63474;55.624;37.304;2022-09-20T17:02:32;2.08;;;1.73;;
74912;SDS011;63474;55.624;37.304;2022-09-20T17:07:25;2.80;;;1.80;;
74912;SDS011;63474;55.624;37.304;2022-09-20T17:09:51;2.95;;;1.92;;
74912;SDS011;63474;55.624;37.304;2022-09-20T17:12:17;5.35;;;2.05;;
74912;SDS011;63474;55.624;37.304;2022-09-20T17:14:43;2.38;;;1.70;;
74912;SDS011;63474;55.624;37.304;2022-09-20T17:17:10;2.42;;;1.90;;
74912;SDS011;63474;55.624;37.304;2022-09-20T17:19:37;2.75;;;1.85;;
74912;SDS011;63474;55.624;37.304;2022-09-20T17:24:30;3.25;;;1.88;;
74912;SDS011;63474;55.624;37.304;2022-09-20T17:27:00;2.83;;;1.75;;
74912;SDS011;63474;55.624;37.304;2022-09-20T17:29:26;3.30;;;1.92;;
74912;SDS011;63474;55.624;37.304;2022-09-20T17:31:52;4.85;;;1.90;;
74912;SDS011;63474;55.624;37.304;2022-09-20T17:34:17;2.70;;;1.90;;
74912;SDS011;63474;55.624;37.304;2022-09-20T17:36:44;3.08;;;2.20;;
74912;SDS011;63474;55.624;37.304;2022-09-20T17:39:11;16.90;;;13.48;;
74912;SDS011;63474;55.624;37.304;2022-09-20T17:41:41;4.20;;;2.92;;
74912;SDS011;63474;55.624;37.304;2022-09-20T17:44:09;3.22;;;2.17;;
74912;SDS011;63474;55.624;37.304;2022-09-20T17:46:37;4.10;;;2.13;;
74912;SDS011;63474;55.624;37.304;2022-09-20T17:49:08;3.13;;;2.20;;
74912;SDS011;63474;55.624;37.304;2022-09-20T17:54:23;3.65;;;2.38;;
74912;SDS011;63474;55.624;37.304;2022-09-20T17:56:50;4.13;;;2.47;;
74912;SDS011;63474;55.624;37.304;2022-09-20T17:59:18;2.88;;;2.15;;
74912;SDS011;63474;55.624;37.304;2022-09-20T18:01:45;3.55;;;1.95;;
74912;SDS011;63474;55.624;37.304;2022-09-20T18:04:13;3.67;;;2.25;;
74912;SDS011;63474;55.624;37.304;2022-09-20T18:06:40;2.80;;;2.10;;
74912;SDS011;63474;55.624;37.304;2022-09-20T18:09:10;2.30;;;2.10;;
74912;SDS011;63474;55.624;37.304;2022-09-20T18:11:39;2.30;;;1.88;;
74912;SDS011;63474;55.624;37.304;2022-09-20T18:14:09;4.00;;;2.25;;
74912;SDS011;63474;55.624;37.304;2022-09-20T18:16:35;3.60;;;2.20;;
74912;SDS011;63474;55.624;37.304;2022-09-20T18:21:27;2.88;;;2.08;;
74912;SDS011;63474;55.624;37.304;2022-09-20T18:23:56;2.33;;;1.50;;
74912;SDS011;63474;55.624;37.304;2022-09-20T18:26:23;2.55;;;1.90;;
74912;SDS011;63474;55.624;37.304;2022-09-20T18:28:56;2.30;;;2.10;;
74912;SDS011;63474;55.624;37.304;2022-09-20T18:31:30;3.97;;;2.10;;
74912;SDS011;63474;55.624;37.304;2022-09-20T18:34:07;2.65;;;1.75;;
74912;SDS011;63474;55.624;37.304;2022-09-20T18:36:37;2.00;;;1.67;;
74912;SDS011;63474;55.624;37.304;2022-09-20T18:39:05;2.53;;;1.75;;
74912;SDS011;63474;55.624;37.304;2022-09-20T18:41:35;2.47;;;1.75;;
74912;SDS011;63474;55.624;37.304;2022-09-20T18:44:04;2.47;;;1.90;;
74912;SDS011;63474;55.624;37.304;2022-09-20T18:49:16;2.72;;;1.98;;
74912;SDS011;63474;55.624;37.304;2022-09-20T18:51:44;2.83;;;2.00;;
74912;SDS011;63474;55.624;37.304;2022-09-20T18:54:10;4.88;;;2.08;;
74912;SDS011;63474;55.624;37.304;2022-09-20T18:56:38;2.95;;;1.85;;
74912;SDS011;63474;55.624;37.304;2022-09-20T19:12:05;2.92;;;2.03;;
74912;SDS011;63474;55.624;37.304;2022-09-20T19:17:05;3.10;;;2.03;;
74912;SDS011;63474;55.624;37.304;2022-09-20T19:22:19;3.83;;;2.00;;
74912;SDS011;63474;55.624;37.304;2022-09-20T19:25:01;3.70;;;2.42;;
74912;SDS011;63474;55.624;37.304;2022-09-20T19:27:49;3.17;;;2.08;;
74912;SDS011;63474;55.624;37.304;2022-09-20T19:30:15;2.17;;;1.92;;
74912;SDS011;63474;55.624;37.304;2022-09-20T19:32:42;2.42;;;2.13;;
74912;SDS011;63474;55.624;37.304;2022-09-20T19:35:20;4.90;;;2.22;;
74912;SDS011;63474;55.624;37.304;2022-09-20T19:43:13;4.88;;;2.30;;
74912;SDS011;63474;55.624;37.304;2022-09-20T19:48:32;4.70;;;2.45;;
74912;SDS011;63474;55.624;37.304;2022-09-20T19:51:04;4.55;;;2.35;;
74912;SDS011;63474;55.624;37.304;2022-09-20T19:53:37;3.45;;;2.45;;
74912;SDS011;63474;55.624;37.304;2022-09-20T19:58:32;4.30;;;2.10;;
74912;SDS011;63474;55.624;37.304;2022-09-20T20:03:25;3.70;;;2.35;;
74912;SDS011;63474;55.624;37.304;2022-09-20T20:06:07;4.72;;;2.50;;
74912;SDS011;63474;55.624;37.304;2022-09-20T20:14:18;3.75;;;2.40;;
74912;SDS011;63474;55.624;37.304;2022-09-20T20:16:56;5.28;;;2.10;;
74912;SDS011;63474;55.624;37.304;2022-09-20T20:28:30;4.28;;;2.88;;
74912;SDS011;63474;55.624;37.304;2022-09-20T20:33:24;4.25;;;2.90;;
74912;SDS011;63474;55.624;37.304;2022-09-20T20:35:51;4.38;;;3.13;;
74912;SDS011;63474;55.624;37.304;2022-09-20T20:38:29;3.17;;;2.22;;
74912;SDS011;63474;55.624;37.304;2022-09-20T20:43:21;3.42;;;2.75;;
74912;SDS011;63474;55.624;37.304;2022-09-20T20:45:48;3.70;;;2.53;;
74912;SDS011;63474;55.624;37.304;2022-09-20T20:48:16;3.63;;;2.80;;
74912;SDS011;63474;55.624;37.304;2022-09-20T20:50:41;3.88;;;2.83;;
74912;SDS011;63474;55.624;37.304;2022-09-20T20:53:07;4.30;;;2.67;;
74912;SDS011;63474;55.624;37.304;2022-09-20T20:55:34;6.00;;;2.72;;
74912;SDS011;63474;55.624;37.304;2022-09-20T21:00:26;3.92;;;2.55;;
74912;SDS011;63474;55.624;37.304;2022-09-20T21:02:57;2.92;;;2.13;;
74912;SDS011;63474;55.624;37.304;2022-09-20T21:07:50;3.38;;;2.13;;
74912;SDS011;63474;55.624;37.304;2022-09-20T21:10:15;3.00;;;2.08;;
74912;SDS011;63474;55.624;37.304;2022-09-20T21:12:42;3.45;;;2.65;;
74912;SDS011;63474;55.624;37.304;2022-09-20T21:15:08;3.45;;;2.67;;
74912;SDS011;63474;55.624;37.304;2022-09-20T21:17:33;3.42;;;2.40;;
74912;SDS011;63474;55.624;37.304;2022-09-20T21:20:02;3.88;;;2.17;;
74912;SDS011;63474;55.624;37.304;2022-09-20T21:24:54;3.83;;;2.55;;
74912;SDS011;63474;55.624;37.304;2022-09-20T21:27:21;3.78;;;2.75;;
74912;SDS011;63474;55.624;37.304;2022-09-20T21:29:46;2.88;;;2.45;;
74912;SDS011;63474;55.624;37.304;2022-09-20T21:32:13;4.45;;;2.78;;
74912;SDS011;63474;55.624;37.304;2022-09-20T21:34:39;5.82;;;2.63;;
74912;SDS011;63474;55.624;37.304;2022-09-20T21:37:06;4.15;;;2.60;;
74912;SDS011;63474;55.624;37.304;2022-09-20T21:39:32;3.65;;;2.83;;
74912;SDS011;63474;55.624;37.304;2022-09-20T21:44:23;2.90;;;2.30;;